createdAt,value
2022-10-13T00:01:01.083Z,4.03
2022-10-13T00:03:28.021Z,3.80
2022-10-13T00:05:54.896Z,4.20
2022-10-13T00:08:22.368Z,3.80
2022-10-13T00:10:51.168Z,4.10
2022-10-13T00:13:23.710Z,3.80
2022-10-13T00:15:50.631Z,3.87
2022-10-13T00:18:17.688Z,3.43
2022-10-13T00:20:48.528Z,3.40
2022-10-13T00:23:16.390Z,4.20
2022-10-13T00:25:45.675Z,3.80
2022-10-13T00:28:13.357Z,3.90
2022-10-13T00:30:40.655Z,3.43
2022-10-13T00:33:08.936Z,3.90
2022-10-13T00:35:45.335Z,3.67
2022-10-13T00:38:17.148Z,3.93
2022-10-13T00:40:53.754Z,3.13
2022-10-13T00:43:27.321Z,4.17
2022-10-13T00:45:54.688Z,3.30
2022-10-13T00:48:27.715Z,4.40
2022-10-13T00:50:56.462Z,3.23
2022-10-13T00:53:27.511Z,3.87
2022-10-13T00:55:55.248Z,3.77
2022-10-13T00:58:25.563Z,3.10
2022-10-13T01:00:53.647Z,3.77
2022-10-13T01:03:21.372Z,4.43
2022-10-13T01:05:50.852Z,4.47
2022-10-13T01:08:20.031Z,4.63
2022-10-13T01:11:33.239Z,4.10
2022-10-13T01:14:26.825Z,4.73
2022-10-13T01:17:04.203Z,4.27
2022-10-13T01:20:27.456Z,5.13
2022-10-13T01:23:27.628Z,5.73
2022-10-13T01:26:43.743Z,4.13
2022-10-13T01:29:58.955Z,4.33
2022-10-13T01:33:11.951Z,4.67
2022-10-13T01:35:56.783Z,4.87
2022-10-13T01:38:35.519Z,5.23
2022-10-13T01:41:27.606Z,4.97
2022-10-13T01:44:02.749Z,5.43
2022-10-13T01:46:38.595Z,5.30
2022-10-13T01:49:11.337Z,3.60
2022-10-13T01:51:40.083Z,4.40
2022-10-13T01:54:07.276Z,4.00
2022-10-13T01:56:34.152Z,4.53
2022-10-13T01:59:10.087Z,4.80
2022-10-13T02:02:00.168Z,4.40
2022-10-13T02:04:54.243Z,4.40
2022-10-13T02:07:46.163Z,4.10
2022-10-13T02:10:48.445Z,4.60
2022-10-13T02:13:17.743Z,4.57
2022-10-13T02:15:49.456Z,4.33
2022-10-13T02:18:22.527Z,4.23
2022-10-13T02:20:51.146Z,5.43
2022-10-13T02:23:19.301Z,4.50
2022-10-13T02:25:47.682Z,4.97
2022-10-13T02:28:16.062Z,5.10
2022-10-13T02:30:44.728Z,5.53
2022-10-13T02:33:12.701Z,5.40
2022-10-13T02:35:39.961Z,4.90
2022-10-13T02:38:06.991Z,4.30
2022-10-13T02:40:33.965Z,4.37
2022-10-13T02:43:00.871Z,4.50
2022-10-13T02:45:27.755Z,5.03
2022-10-13T02:47:55.366Z,6.30
2022-10-13T02:50:22.245Z,6.80
2022-10-13T02:52:50.497Z,6.20
2022-10-13T02:55:17.456Z,5.23
2022-10-13T02:57:46.076Z,5.53
2022-10-13T03:00:14.592Z,5.27
2022-10-13T03:02:41.811Z,5.23
2022-10-13T03:05:09.624Z,5.20
2022-10-13T03:07:36.913Z,4.70
2022-10-13T03:10:04.996Z,5.77
2022-10-13T03:12:31.868Z,4.30
2022-10-13T03:14:58.732Z,5.27
2022-10-13T03:17:25.833Z,5.37
2022-10-13T03:19:52.691Z,5.00
2022-10-13T03:22:19.785Z,4.60
2022-10-13T03:24:46.862Z,6.20
2022-10-13T03:27:14.247Z,5.00
2022-10-13T03:29:41.199Z,5.57
2022-10-13T03:32:08.059Z,5.70
2022-10-13T03:34:34.954Z,5.10
2022-10-13T03:37:01.864Z,5.03
2022-10-13T03:39:33.938Z,5.17
2022-10-13T03:42:01.856Z,6.37
2022-10-13T03:44:28.760Z,5.10
2022-10-13T03:46:55.627Z,5.87
2022-10-13T03:49:22.524Z,4.93
2022-10-13T03:51:49.401Z,5.87
2022-10-13T03:54:16.385Z,5.90
2022-10-13T03:56:46.733Z,5.90
2022-10-13T03:59:14.648Z,6.30
2022-10-13T04:01:41.564Z,6.70
2022-10-13T04:04:12.351Z,7.13
2022-10-13T04:06:41.873Z,7.63
2022-10-13T04:09:09.525Z,5.93
2022-10-13T04:11:36.414Z,6.40
2022-10-13T04:14:03.666Z,6.47
2022-10-13T04:16:32.199Z,6.70
2022-10-13T04:19:03.543Z,6.80
2022-10-13T04:21:33.511Z,5.80
2022-10-13T04:24:01.448Z,5.77
2022-10-13T04:26:31.345Z,6.17
2022-10-13T04:28:59.317Z,6.20
2022-10-13T04:31:28.932Z,6.20
2022-10-13T04:33:56.133Z,7.87
2022-10-13T04:36:23.871Z,8.10
2022-10-13T04:38:51.281Z,8.07
2022-10-13T04:41:19.092Z,7.50
2022-10-13T04:43:50.752Z,8.00
2022-10-13T04:46:25.524Z,6.97
2022-10-13T04:48:55.563Z,7.80
2022-10-13T04:51:26.539Z,6.97
2022-10-13T04:54:01.387Z,5.80
2022-10-13T04:56:28.524Z,7.27
2022-10-13T04:59:00.044Z,6.00
2022-10-13T05:01:27.249Z,6.60
2022-10-13T05:03:57.130Z,6.37
2022-10-13T05:06:28.629Z,7.20
2022-10-13T05:08:56.222Z,6.50
2022-10-13T05:11:24.341Z,6.13
2022-10-13T05:13:51.383Z,5.87
2022-10-13T05:16:20.942Z,6.60
2022-10-13T05:18:49.443Z,7.10
2022-10-13T05:21:20.406Z,7.37
2022-10-13T05:23:47.408Z,6.87
2022-10-13T05:26:17.950Z,7.17
2022-10-13T05:28:45.564Z,7.43
2022-10-13T05:31:21.459Z,8.47
2022-10-13T05:33:49.398Z,8.07
2022-10-13T05:36:31.963Z,7.77
2022-10-13T05:39:03.440Z,8.13
2022-10-13T05:41:30.744Z,8.33
2022-10-13T05:44:01.556Z,7.90
2022-10-13T05:46:28.732Z,7.67
2022-10-13T05:48:55.784Z,8.27
2022-10-13T05:51:33.868Z,8.20
2022-10-13T05:54:24.362Z,8.03
2022-10-13T05:57:00.430Z,8.70
2022-10-13T05:59:33.015Z,8.30
2022-10-13T06:02:01.912Z,10.50
2022-10-13T06:04:57.299Z,9.53
2022-10-13T06:07:24.798Z,9.97
2022-10-13T06:09:51.847Z,9.87
2022-10-13T06:12:19.026Z,11.90
2022-10-13T06:14:46.472Z,9.80
2022-10-13T06:17:14.150Z,9.40
2022-10-13T06:19:43.204Z,8.97
2022-10-13T06:22:10.085Z,10.80
2022-10-13T06:24:36.987Z,9.90
2022-10-13T06:27:07.209Z,8.60
2022-10-13T06:29:34.101Z,10.63
2022-10-13T06:32:00.946Z,10.53
2022-10-13T06:34:27.809Z,9.67
2022-10-13T06:36:54.671Z,8.77
2022-10-13T06:39:21.607Z,9.60
2022-10-13T06:41:49.689Z,9.43
2022-10-13T06:44:16.663Z,8.33
2022-10-13T06:46:43.520Z,9.87
2022-10-13T06:49:10.408Z,9.47
2022-10-13T06:51:37.507Z,11.50
2022-10-13T06:54:04.366Z,9.83
2022-10-13T06:56:33.517Z,9.97
2022-10-13T06:59:05.542Z,11.30
2022-10-13T07:01:36.684Z,10.20
2022-10-13T07:04:09.125Z,10.33
2022-10-13T07:06:36.042Z,11.23
2022-10-13T07:09:07.858Z,9.10
2022-10-13T07:11:35.777Z,12.07
2022-10-13T07:14:03.049Z,12.40
2022-10-13T07:16:30.065Z,11.53
2022-10-13T07:18:56.910Z,12.53
2022-10-13T07:21:23.761Z,12.30
2022-10-13T07:23:50.610Z,11.60
2022-10-13T07:26:17.574Z,11.13
2022-10-13T07:28:45.157Z,11.90
2022-10-13T07:31:17.582Z,12.07
2022-10-13T07:33:47.714Z,12.20
2022-10-13T07:36:17.138Z,11.70
2022-10-13T07:38:44.110Z,11.57
2022-10-13T07:41:12.621Z,12.30
2022-10-13T07:43:40.230Z,11.30
2022-10-13T07:46:08.661Z,11.97
2022-10-13T07:48:36.146Z,11.83
2022-10-13T07:51:09.910Z,12.13
2022-10-13T07:53:37.087Z,11.60
2022-10-13T07:56:07.516Z,12.13
2022-10-13T07:58:38.255Z,10.10
2022-10-13T08:01:05.531Z,11.00
2022-10-13T08:03:38.862Z,11.20
2022-10-13T08:06:07.624Z,12.47
2022-10-13T08:08:34.916Z,12.07
2022-10-13T08:11:10.018Z,11.53
2022-10-13T08:13:38.285Z,11.20
2022-10-13T08:16:17.119Z,11.57
2022-10-13T08:18:43.996Z,11.00
2022-10-13T08:21:57.471Z,11.43
2022-10-13T08:24:06.344Z,11.37
2022-10-13T08:26:33.472Z,12.40
2022-10-13T08:29:20.593Z,11.70
2022-10-13T08:31:47.317Z,11.70
2022-10-13T08:34:14.283Z,11.73
2022-10-13T08:36:41.197Z,9.77
2022-10-13T08:39:08.122Z,11.57
2022-10-13T08:41:45.960Z,9.53
2022-10-13T08:47:44.799Z,10.00
2022-10-13T08:50:16.382Z,10.30
2022-10-13T08:52:59.807Z,11.50
2022-10-13T08:55:43.159Z,11.07
2022-10-13T08:58:20.994Z,11.90
2022-10-13T09:00:47.872Z,10.57
2022-10-13T09:03:29.259Z,10.13
2022-10-13T09:06:10.291Z,9.57
2022-10-13T09:09:01.945Z,10.27
2022-10-13T09:11:34.778Z,10.10
2022-10-13T09:14:07.071Z,10.40
2022-10-13T09:16:40.370Z,12.00
2022-10-13T09:19:25.950Z,11.30
2022-10-13T09:22:13.657Z,11.10
2022-10-13T09:24:40.811Z,12.17
2022-10-13T09:27:14.764Z,11.07
2022-10-13T09:29:42.867Z,11.10
2022-10-13T09:32:18.990Z,11.13
2022-10-13T09:34:47.081Z,10.60
2022-10-13T09:37:21.434Z,11.17
2022-10-13T09:40:20.583Z,11.40
2022-10-13T09:42:54.372Z,10.90
2022-10-13T09:45:24.791Z,11.70
2022-10-13T09:47:55.447Z,9.97
2022-10-13T09:50:31.894Z,11.30
2022-10-13T09:53:29.824Z,11.67
2022-10-13T09:56:30.640Z,10.67
2022-10-13T09:59:27.387Z,10.60
2022-10-13T10:01:56.965Z,10.50
2022-10-13T10:04:31.928Z,11.90
2022-10-13T10:06:58.810Z,10.60
2022-10-13T10:09:47.450Z,9.60
2022-10-13T10:12:24.206Z,9.73
2022-10-13T10:14:54.547Z,10.57
2022-10-13T10:17:37.023Z,10.20
2022-10-13T10:20:06.587Z,10.70
2022-10-13T10:22:55.304Z,10.07
2022-10-13T10:25:41.671Z,9.73
2022-10-13T10:28:28.887Z,11.03
2022-10-13T10:31:25.353Z,9.50
2022-10-13T10:34:27.133Z,11.30
2022-10-13T10:37:25.536Z,8.97
2022-10-13T10:40:41.501Z,10.47
2022-10-13T10:43:38.974Z,10.33
2022-10-13T10:46:23.558Z,10.00
2022-10-13T10:48:56.765Z,9.97
2022-10-13T10:51:31.068Z,8.87
2022-10-13T10:54:48.375Z,8.97
2022-10-13T10:57:27.961Z,8.50
2022-10-13T11:00:15.749Z,10.73
2022-10-13T11:03:27.517Z,11.53
2022-10-13T11:05:57.369Z,9.80
2022-10-13T11:08:44.602Z,8.57
2022-10-13T11:11:38.429Z,13.63
2022-10-13T11:14:10.675Z,12.07
2022-10-13T11:17:02.103Z,9.77
2022-10-13T11:19:34.377Z,10.10
2022-10-13T11:22:01.144Z,10.67
2022-10-13T11:24:42.119Z,10.10
2022-10-13T11:27:35.079Z,9.10
2022-10-13T11:30:03.479Z,8.80
2022-10-13T11:32:41.073Z,8.50
2022-10-13T11:35:08.331Z,9.63
2022-10-13T11:38:06.780Z,9.70
2022-10-13T11:41:10.824Z,9.70
2022-10-13T11:43:51.274Z,10.40
2022-10-13T11:46:57.901Z,9.00
2022-10-13T11:50:04.262Z,8.87
2022-10-13T11:53:08.009Z,8.40
2022-10-13T11:55:55.136Z,9.80
2022-10-13T11:58:28.629Z,9.03
2022-10-13T12:01:08.675Z,8.30
2022-10-13T12:03:39.802Z,8.60
2022-10-13T12:06:22.813Z,9.27
2022-10-13T12:08:52.052Z,9.50
2022-10-13T12:11:32.387Z,10.50
2022-10-13T12:14:01.083Z,8.50
2022-10-13T12:16:29.425Z,9.87
2022-10-13T12:19:19.865Z,8.23
2022-10-13T12:21:52.164Z,9.57
2022-10-13T12:24:23.331Z,7.50
2022-10-13T12:26:51.454Z,9.37
2022-10-13T12:29:24.650Z,9.30
2022-10-13T12:31:52.286Z,10.00
2022-10-13T12:34:32.786Z,8.60
2022-10-13T12:37:14.190Z,9.13
2022-10-13T12:39:41.369Z,9.70
2022-10-13T12:42:11.460Z,8.53
2022-10-13T12:44:38.902Z,9.10
2022-10-13T12:47:06.129Z,9.20
2022-10-13T12:49:36.192Z,9.23
2022-10-13T12:52:09.277Z,8.13
2022-10-13T12:54:47.473Z,9.30
2022-10-13T12:57:36.018Z,9.23
2022-10-13T13:00:17.326Z,9.43
2022-10-13T13:03:02.247Z,9.07
2022-10-13T13:05:41.031Z,9.63
2022-10-13T13:08:29.633Z,8.80
2022-10-13T13:11:01.941Z,10.60
2022-10-13T13:13:29.581Z,9.27
2022-10-13T13:16:20.952Z,10.73
2022-10-13T13:18:50.603Z,8.73
2022-10-13T13:21:20.088Z,9.40
2022-10-13T13:23:52.845Z,9.97
2022-10-13T13:26:23.665Z,8.60
2022-10-13T13:28:55.959Z,9.97
2022-10-13T13:31:25.689Z,9.27
2022-10-13T13:33:53.127Z,9.67
2022-10-13T13:36:24.292Z,9.77
2022-10-13T13:38:54.644Z,9.53
2022-10-13T13:41:22.402Z,8.57
2022-10-13T13:43:50.457Z,8.43
2022-10-13T13:46:24.746Z,9.40
2022-10-13T13:48:52.037Z,8.73
2022-10-13T13:51:19.254Z,9.40
2022-10-13T13:53:46.794Z,9.03
2022-10-13T13:56:18.017Z,10.90
2022-10-13T13:58:45.392Z,8.97
2022-10-13T14:01:13.807Z,9.97
2022-10-13T14:03:40.690Z,9.67
2022-10-13T14:06:08.830Z,9.27
2022-10-13T14:08:42.584Z,10.30
2022-10-13T14:11:10.263Z,10.30
2022-10-13T14:13:37.150Z,9.77
2022-10-13T14:16:04.636Z,9.80
2022-10-13T14:18:32.125Z,9.90
2022-10-13T14:20:59.129Z,8.87
2022-10-13T14:23:26.131Z,9.50
2022-10-13T14:25:53.009Z,9.63
2022-10-13T14:28:20.852Z,9.10
2022-10-13T14:30:48.017Z,8.73
2022-10-13T14:33:19.252Z,9.10
2022-10-13T14:35:46.922Z,9.17
2022-10-13T14:38:16.376Z,8.73
2022-10-13T14:40:44.492Z,9.10
2022-10-13T14:43:11.374Z,9.80
2022-10-13T14:45:38.242Z,9.40
2022-10-13T14:48:06.026Z,9.50
2022-10-13T14:50:34.331Z,9.37
2022-10-13T14:53:01.230Z,8.50
2022-10-13T14:55:28.766Z,8.70
2022-10-13T14:57:55.646Z,9.20
2022-10-13T15:00:22.506Z,8.40
2022-10-13T15:02:49.370Z,8.97
2022-10-13T15:05:16.348Z,9.50
2022-10-13T15:07:43.224Z,9.80
2022-10-13T15:10:10.228Z,10.07
2022-10-13T15:12:37.094Z,9.47
2022-10-13T15:15:04.944Z,8.40
2022-10-13T15:17:33.233Z,9.30
2022-10-13T15:20:00.461Z,9.13
2022-10-13T15:22:27.366Z,8.97
2022-10-13T15:24:54.237Z,9.67
2022-10-13T15:27:21.129Z,10.10
2022-10-13T15:29:48.005Z,10.20
2022-10-13T15:32:18.609Z,10.90
2022-10-13T15:34:50.392Z,10.70
2022-10-13T15:37:17.288Z,10.30
2022-10-13T15:39:44.153Z,10.90
2022-10-13T15:42:12.132Z,10.03
2022-10-13T15:47:25.897Z,11.73
2022-10-13T15:49:52.771Z,10.90
2022-10-13T15:52:20.107Z,11.17
2022-10-13T15:54:51.229Z,15.83
2022-10-13T15:57:18.251Z,20.80
2022-10-13T15:59:45.131Z,15.10
2022-10-13T16:02:12.031Z,16.77
2022-10-13T16:04:38.995Z,14.10
2022-10-13T16:07:05.877Z,13.60
2022-10-13T16:09:32.767Z,15.27
2022-10-13T16:11:59.712Z,18.50
2022-10-13T16:14:26.595Z,18.43
2022-10-13T16:16:53.454Z,14.97
2022-10-13T16:19:20.400Z,13.50
2022-10-13T16:21:47.269Z,13.07
2022-10-13T16:24:14.894Z,13.97
2022-10-13T16:26:41.762Z,13.73
2022-10-13T16:29:08.671Z,13.70
2022-10-13T16:31:35.560Z,13.40
2022-10-13T16:34:02.452Z,12.50
2022-10-13T16:36:29.388Z,12.97
2022-10-13T16:38:56.299Z,12.87
2022-10-13T16:41:23.884Z,16.60
2022-10-13T16:43:50.818Z,14.73
2022-10-13T16:46:20.514Z,14.27
2022-10-13T16:48:48.278Z,16.10
2022-10-13T16:51:21.940Z,13.70
2022-10-13T16:53:57.608Z,12.33
2022-10-13T16:56:28.115Z,14.87
2022-10-13T16:58:58.375Z,14.47
2022-10-13T17:01:26.055Z,15.20
2022-10-13T17:03:53.450Z,16.40
2022-10-13T17:06:23.716Z,13.50
2022-10-13T17:09:03.074Z,14.07
2022-10-13T17:11:31.921Z,16.40
2022-10-13T17:14:00.200Z,17.00
2022-10-13T17:16:31.296Z,16.00
2022-10-13T17:18:58.189Z,17.27
2022-10-13T17:21:33.091Z,17.47
2022-10-13T17:23:59.956Z,18.90
2022-10-13T17:26:26.824Z,16.13
2022-10-13T17:28:54.351Z,17.93
2022-10-13T17:31:23.749Z,17.47
2022-10-13T17:33:51.555Z,25.23
2022-10-13T17:36:26.860Z,18.80
2022-10-13T17:38:55.871Z,19.07
2022-10-13T17:41:24.312Z,20.17
2022-10-13T17:43:51.984Z,19.97
2022-10-13T17:46:40.598Z,20.03
2022-10-13T17:49:11.399Z,25.33
2022-10-13T17:51:40.364Z,25.30
2022-10-13T17:54:11.489Z,20.40
2022-10-13T17:56:41.600Z,17.00
2022-10-13T17:59:09.855Z,18.07
2022-10-13T18:01:37.560Z,19.10
2022-10-13T18:04:08.477Z,16.73
2022-10-13T18:06:43.645Z,17.23
2022-10-13T18:09:14.434Z,18.37
2022-10-13T18:11:48.818Z,17.00
2022-10-13T18:14:19.755Z,17.90
2022-10-13T18:16:50.542Z,18.33
2022-10-13T18:19:17.723Z,16.20
2022-10-13T18:21:44.608Z,15.83
2022-10-13T18:24:12.058Z,15.03
2022-10-13T18:26:39.363Z,18.47
2022-10-13T18:29:08.569Z,15.60
2022-10-13T18:31:37.714Z,18.13
2022-10-13T18:34:12.376Z,17.53
2022-10-13T18:36:47.242Z,20.00
2022-10-13T18:39:17.924Z,19.63
2022-10-13T18:41:47.917Z,18.63
2022-10-13T18:44:14.983Z,17.47
2022-10-13T18:46:42.480Z,18.37
2022-10-13T18:49:12.984Z,19.93
2022-10-13T18:51:42.074Z,20.27
2022-10-13T18:54:09.040Z,20.57
2022-10-13T18:56:37.024Z,22.30
2022-10-13T18:59:06.381Z,22.00
2022-10-13T19:01:35.475Z,19.37
2022-10-13T19:04:02.695Z,17.77
2022-10-13T19:06:32.197Z,21.10
2022-10-13T19:09:06.612Z,22.27
2022-10-13T19:11:37.026Z,18.73
2022-10-13T19:14:06.882Z,18.80
2022-10-13T19:16:38.491Z,18.30
2022-10-13T19:19:06.685Z,17.00
2022-10-13T19:21:33.563Z,15.00
2022-10-13T19:24:01.075Z,14.70
2022-10-13T19:26:32.490Z,15.10
2022-10-13T19:29:07.574Z,15.90
2022-10-13T19:31:36.180Z,16.70
2022-10-13T19:34:08.020Z,15.30
2022-10-13T19:36:42.108Z,14.47
2022-10-13T19:39:20.557Z,15.40
2022-10-13T19:41:49.229Z,13.73
2022-10-13T19:44:18.380Z,15.83
2022-10-13T19:46:46.709Z,15.37
2022-10-13T19:49:17.167Z,14.20
2022-10-13T19:51:47.789Z,13.83
2022-10-13T19:54:15.303Z,14.07
2022-10-13T19:56:48.226Z,15.17
2022-10-13T19:59:16.009Z,13.67
2022-10-13T20:01:43.246Z,15.00
2022-10-13T20:04:14.558Z,15.20
2022-10-13T20:06:43.637Z,13.70
2022-10-13T20:09:10.625Z,14.70
2022-10-13T20:11:37.547Z,15.77
2022-10-13T20:14:04.569Z,14.30
2022-10-13T20:16:31.587Z,15.60
2022-10-13T20:19:00.144Z,14.20
2022-10-13T20:21:28.540Z,14.57
2022-10-13T20:23:55.924Z,13.53
2022-10-13T20:26:23.704Z,13.40
2022-10-13T20:28:52.191Z,13.90
2022-10-13T20:31:21.552Z,14.10
2022-10-13T20:33:53.941Z,12.80
2022-10-13T20:36:21.089Z,13.40
2022-10-13T20:38:49.257Z,12.97
2022-10-13T20:41:29.660Z,13.70
2022-10-13T20:43:59.726Z,13.93
2022-10-13T20:46:27.358Z,14.53
2022-10-13T20:49:11.765Z,13.23
2022-10-13T20:51:39.623Z,13.10
2022-10-13T20:54:06.735Z,12.50
2022-10-13T20:56:33.737Z,11.73
2022-10-13T20:59:08.505Z,12.00
2022-10-13T21:01:35.872Z,12.27
2022-10-13T21:04:03.066Z,10.90
2022-10-13T21:06:30.476Z,12.40
2022-10-13T21:09:00.717Z,10.80
2022-10-13T21:11:27.670Z,11.80
2022-10-13T21:13:54.552Z,12.00
2022-10-13T21:16:27.150Z,12.57
2022-10-13T21:18:56.437Z,10.90
2022-10-13T21:21:26.600Z,11.47
2022-10-13T21:24:01.631Z,10.97
2022-10-13T21:26:30.450Z,11.20
2022-10-13T21:28:57.585Z,10.80
2022-10-13T21:31:25.534Z,11.43
2022-10-13T21:33:52.510Z,13.07
2022-10-13T21:36:26.718Z,11.60
2022-10-13T21:38:57.325Z,12.90
2022-10-13T21:41:24.789Z,11.30
2022-10-13T21:43:52.735Z,11.47
2022-10-13T21:46:30.228Z,12.77
2022-10-13T21:49:00.646Z,11.83
2022-10-13T21:51:36.833Z,11.20
2022-10-13T21:54:09.588Z,11.77
2022-10-13T21:56:37.920Z,11.77
2022-10-13T21:59:05.751Z,12.30
2022-10-13T22:01:33.715Z,11.53
2022-10-13T22:04:02.460Z,11.90
2022-10-13T22:06:32.112Z,11.87
2022-10-13T22:09:01.573Z,10.80
2022-10-13T22:11:31.874Z,11.50
2022-10-13T22:14:04.627Z,11.13
2022-10-13T22:16:42.109Z,11.10
2022-10-13T22:19:10.544Z,10.80
2022-10-13T22:21:42.880Z,11.83
2022-10-13T22:24:19.876Z,10.97
2022-10-13T22:26:49.160Z,10.23
2022-10-13T22:29:20.478Z,9.67
2022-10-13T22:31:47.731Z,10.57
2022-10-13T22:34:15.938Z,10.67
2022-10-13T22:36:45.039Z,10.63
2022-10-13T22:39:12.762Z,11.27
2022-10-13T22:41:39.688Z,11.27
2022-10-13T22:44:06.817Z,10.37
2022-10-13T22:46:36.920Z,9.73
2022-10-13T22:49:05.321Z,10.57
2022-10-13T22:51:34.600Z,10.70
2022-10-13T22:54:01.735Z,11.10
2022-10-13T22:56:32.453Z,10.30
2022-10-13T22:59:07.516Z,10.63
2022-10-13T23:01:34.658Z,9.87
2022-10-13T23:04:01.705Z,10.00
2022-10-13T23:06:33.047Z,10.77
2022-10-13T23:09:05.395Z,11.20
2022-10-13T23:11:32.339Z,11.17
2022-10-13T23:14:01.372Z,11.60
2022-10-13T23:16:28.637Z,11.50
2022-10-13T23:18:55.865Z,10.83
2022-10-13T23:21:26.234Z,10.00
2022-10-13T23:23:59.606Z,9.90
2022-10-13T23:26:27.618Z,10.50
2022-10-13T23:28:58.600Z,10.23
2022-10-13T23:31:27.569Z,10.80
2022-10-13T23:33:54.595Z,10.43
2022-10-13T23:36:25.444Z,10.63
2022-10-13T23:38:58.742Z,12.20
2022-10-13T23:41:26.544Z,10.50
2022-10-13T23:43:53.541Z,10.33
2022-10-13T23:46:20.744Z,9.80
2022-10-13T23:48:47.667Z,11.80
2022-10-13T23:51:19.933Z,9.17
2022-10-13T23:53:47.177Z,10.83
2022-10-13T23:56:15.447Z,10.47
2022-10-13T23:58:43.872Z,9.77
